createdAt,value
2023-05-05T00:01:13.812Z,15.73
2023-05-05T00:03:42.789Z,15.90
2023-05-05T00:06:30.052Z,15.94
2023-05-05T00:09:10.713Z,15.59
2023-05-05T00:11:37.546Z,15.61
2023-05-05T00:14:25.045Z,15.49
2023-05-05T00:17:26.035Z,15.48
2023-05-05T00:20:07.869Z,15.07
2023-05-05T00:22:55.060Z,15.39
2023-05-05T00:25:35.723Z,15.23
2023-05-05T00:28:02.630Z,15.59
2023-05-05T00:30:29.871Z,15.26
2023-05-05T00:32:57.423Z,15.26
2023-05-05T00:35:24.546Z,15.54
2023-05-05T00:37:51.502Z,15.19
2023-05-05T00:40:38.047Z,15.39
2023-05-05T00:43:18.731Z,15.31
2023-05-05T00:45:47.892Z,15.24
2023-05-05T00:48:17.146Z,15.06
2023-05-05T00:50:45.158Z,15.28
2023-05-05T00:53:12.577Z,15.83
2023-05-05T00:55:40.547Z,15.45
2023-05-05T00:58:08.038Z,15.58
2023-05-05T01:00:35.188Z,15.44
2023-05-05T01:03:02.273Z,15.72
2023-05-05T01:06:27.103Z,15.76
2023-05-05T01:09:10.698Z,15.87
2023-05-05T01:11:56.509Z,15.77
2023-05-05T01:14:32.135Z,15.68
2023-05-05T01:17:00.168Z,16.00
2023-05-05T01:19:52.497Z,15.95
2023-05-05T01:22:55.098Z,15.96
2023-05-05T01:26:26.100Z,15.79
2023-05-05T01:29:32.735Z,15.56
2023-05-05T01:32:14.979Z,15.73
2023-05-05T01:35:02.188Z,15.77
2023-05-05T01:37:55.111Z,16.03
2023-05-05T01:40:43.755Z,15.50
2023-05-05T01:43:13.612Z,15.63
2023-05-05T01:45:43.271Z,15.70
2023-05-05T01:48:12.670Z,15.69
2023-05-05T01:50:44.119Z,15.55
2023-05-05T01:53:12.942Z,15.86
2023-05-05T01:55:41.019Z,15.85
2023-05-05T01:58:09.860Z,15.40
2023-05-05T02:00:38.690Z,15.71
2023-05-05T02:03:07.983Z,15.56
2023-05-05T02:05:57.126Z,15.37
2023-05-05T02:08:39.494Z,14.81
2023-05-05T02:11:09.453Z,14.97
2023-05-05T02:13:40.824Z,15.31
2023-05-05T02:16:14.126Z,15.31
2023-05-05T02:18:43.132Z,15.52
2023-05-05T02:21:30.147Z,15.45
2023-05-05T02:24:12.796Z,15.54
2023-05-05T02:26:40.711Z,15.81
2023-05-05T02:29:16.628Z,15.69
2023-05-05T02:31:55.566Z,15.07
2023-05-05T02:34:51.128Z,15.51
2023-05-05T02:37:54.168Z,15.70
2023-05-05T02:40:39.317Z,14.98
2023-05-05T02:43:09.952Z,15.27
2023-05-05T02:45:37.143Z,14.99
2023-05-05T02:48:04.657Z,15.11
2023-05-05T02:50:35.303Z,15.11
2023-05-05T02:53:13.804Z,15.30
2023-05-05T02:55:52.035Z,15.08
2023-05-05T02:58:37.238Z,15.41
2023-05-05T03:01:11.933Z,15.38
2023-05-05T03:03:44.870Z,15.51
2023-05-05T03:06:36.166Z,15.40
2023-05-05T03:09:26.471Z,15.55
2023-05-05T03:12:11.158Z,15.23
2023-05-05T03:14:51.946Z,15.33
2023-05-05T03:17:21.706Z,15.17
2023-05-05T03:19:50.377Z,14.73
2023-05-05T03:22:37.215Z,14.64
2023-05-05T03:25:19.725Z,14.90
2023-05-05T03:27:47.774Z,14.99
2023-05-05T03:30:20.299Z,15.07
2023-05-05T03:32:50.836Z,14.53
2023-05-05T03:35:17.997Z,14.68
2023-05-05T03:37:45.128Z,14.67
2023-05-05T03:40:14.813Z,14.41
2023-05-05T03:42:41.965Z,14.43
2023-05-05T03:45:09.298Z,14.42
2023-05-05T03:47:37.532Z,14.27
2023-05-05T03:50:06.887Z,14.52
2023-05-05T03:52:34.034Z,14.51
2023-05-05T03:55:01.505Z,14.56
2023-05-05T03:57:49.193Z,14.45
2023-05-05T04:01:02.360Z,14.20
2023-05-05T04:04:03.242Z,14.08
2023-05-05T04:07:04.228Z,14.53
2023-05-05T04:09:45.502Z,14.26
2023-05-05T04:12:13.665Z,14.68
2023-05-05T04:14:40.973Z,14.45
2023-05-05T04:17:09.207Z,14.04
2023-05-05T04:19:36.411Z,14.64
2023-05-05T04:22:24.201Z,14.41
2023-05-05T04:25:05.097Z,14.70
2023-05-05T04:27:32.840Z,14.61
2023-05-05T04:30:00.824Z,14.34
2023-05-05T04:32:28.091Z,14.69
2023-05-05T04:34:56.004Z,14.84
2023-05-05T04:37:23.514Z,15.04
2023-05-05T04:39:50.673Z,15.03
2023-05-05T04:42:18.447Z,14.92
2023-05-05T04:44:45.361Z,15.69
2023-05-05T04:47:14.591Z,15.98
2023-05-05T04:49:42.436Z,16.32
2023-05-05T04:52:09.354Z,16.72
2023-05-05T04:54:57.213Z,17.37
2023-05-05T04:57:37.900Z,17.06
2023-05-05T05:00:05.683Z,17.73
2023-05-05T05:02:33.153Z,17.90
2023-05-05T05:05:00.192Z,17.93
2023-05-05T05:07:47.310Z,18.19
2023-05-05T05:10:49.297Z,18.01
2023-05-05T05:13:51.319Z,18.53
2023-05-05T05:16:52.348Z,18.09
2023-05-05T05:19:32.960Z,17.41
2023-05-05T05:22:20.286Z,18.10
2023-05-05T05:25:00.824Z,17.84
2023-05-05T05:27:28.490Z,18.18
2023-05-05T05:29:56.148Z,19.24
2023-05-05T05:32:44.305Z,20.18
2023-05-05T05:35:45.305Z,21.06
2023-05-05T05:38:26.904Z,21.45
2023-05-05T05:40:57.178Z,21.44
2023-05-05T05:43:25.038Z,22.02
2023-05-05T05:45:52.066Z,21.95
2023-05-05T05:48:21.508Z,21.41
2023-05-05T05:50:48.510Z,21.20
2023-05-05T05:53:15.458Z,21.65
2023-05-05T05:55:42.524Z,22.65
2023-05-05T05:58:09.589Z,22.99
2023-05-05T06:00:36.634Z,22.87
2023-05-05T06:03:08.176Z,23.22
2023-05-05T06:06:01.276Z,23.84
2023-05-05T06:09:02.282Z,24.30
2023-05-05T06:11:48.755Z,23.68
2023-05-05T06:14:18.016Z,23.96
2023-05-05T06:16:45.395Z,24.92
2023-05-05T06:19:16.528Z,22.99
2023-05-05T06:22:04.388Z,23.83
2023-05-05T06:24:45.667Z,23.38
2023-05-05T06:27:12.691Z,24.10
2023-05-05T06:29:39.639Z,23.63
2023-05-05T06:32:08.469Z,23.10
2023-05-05T06:34:55.298Z,24.57
2023-05-05T06:37:35.989Z,24.62
2023-05-05T06:40:23.308Z,23.29
2023-05-05T06:43:24.339Z,23.78
2023-05-05T06:46:27.294Z,24.26
2023-05-05T06:49:07.827Z,24.49
2023-05-05T06:51:55.293Z,24.60
2023-05-05T06:54:35.948Z,24.15
2023-05-05T06:57:23.342Z,23.44
2023-05-05T07:00:06.125Z,22.57
2023-05-05T07:02:33.889Z,22.68
2023-05-05T07:05:01.378Z,21.77
2023-05-05T07:07:55.321Z,22.95
2023-05-05T07:10:35.852Z,21.42
2023-05-05T07:13:16.424Z,22.48
2023-05-05T07:16:17.356Z,23.89
2023-05-05T07:18:58.285Z,23.04
2023-05-05T07:21:47.331Z,24.23
2023-05-05T07:24:27.983Z,24.45
2023-05-05T07:26:54.981Z,22.24
2023-05-05T07:29:21.890Z,22.46
2023-05-05T07:32:09.368Z,22.60
2023-05-05T07:35:10.380Z,21.08
2023-05-05T07:37:51.467Z,21.68
2023-05-05T07:40:38.320Z,22.65
2023-05-05T07:43:39.600Z,23.43
2023-05-05T07:46:40.343Z,23.40
2023-05-05T07:49:29.188Z,25.27
2023-05-05T07:52:16.385Z,24.44
2023-05-05T07:54:56.861Z,23.86
2023-05-05T07:57:23.815Z,21.98
2023-05-05T07:59:50.874Z,22.64
2023-05-05T08:02:17.999Z,23.78
2023-05-05T08:04:44.980Z,24.35
2023-05-05T08:07:11.927Z,23.71
2023-05-05T08:09:38.916Z,24.59
2023-05-05T08:12:06.003Z,24.43
2023-05-05T08:14:33.143Z,24.67
2023-05-05T08:17:00.054Z,23.65
2023-05-05T08:19:29.519Z,22.14
2023-05-05T08:22:17.384Z,23.02
2023-05-05T08:25:18.345Z,23.34
2023-05-05T08:27:58.910Z,23.85
2023-05-05T08:30:28.186Z,23.88
2023-05-05T08:33:15.411Z,24.83
2023-05-05T08:35:57.019Z,23.68
2023-05-05T08:38:24.007Z,24.28
2023-05-05T08:40:51.601Z,23.36
2023-05-05T08:43:38.451Z,22.29
2023-05-05T08:46:18.970Z,23.37
2023-05-05T08:48:48.901Z,24.05
2023-05-05T08:51:40.419Z,24.69
2023-05-05T08:54:27.279Z,25.50
2023-05-05T08:56:59.956Z,25.93
2023-05-05T08:59:30.234Z,24.93
2023-05-05T09:02:01.734Z,25.99
2023-05-05T09:04:28.873Z,24.75
2023-05-05T09:06:58.601Z,24.90
2023-05-05T09:09:27.286Z,26.34
2023-05-05T09:11:56.032Z,26.43
2023-05-05T09:14:22.945Z,25.41
2023-05-05T09:16:49.815Z,24.03
2023-05-05T09:19:16.778Z,26.02
2023-05-05T09:22:03.552Z,26.55
2023-05-05T09:24:55.315Z,26.10
2023-05-05T09:27:23.547Z,25.13
2023-05-05T09:29:50.943Z,26.02
2023-05-05T09:32:18.505Z,26.58
2023-05-05T09:35:15.401Z,26.60
2023-05-05T09:38:25.443Z,26.01
2023-05-05T09:41:37.751Z,26.83
2023-05-05T09:44:59.930Z,27.37
2023-05-05T09:48:01.532Z,27.72
2023-05-05T09:50:45.238Z,27.44
2023-05-05T09:53:12.319Z,28.03
2023-05-05T09:55:39.294Z,28.42
2023-05-05T09:58:19.630Z,28.07
2023-05-05T10:00:47.546Z,28.47
2023-05-05T10:03:14.506Z,28.50
2023-05-05T10:06:11.425Z,28.27
2023-05-05T10:09:01.800Z,27.58
2023-05-05T10:11:28.730Z,27.91
2023-05-05T10:13:56.342Z,26.92
2023-05-05T10:16:24.677Z,26.39
2023-05-05T10:18:52.187Z,25.21
2023-05-05T10:21:41.418Z,27.05
2023-05-05T10:24:34.466Z,28.13
2023-05-05T10:27:05.469Z,28.43
2023-05-05T10:29:46.136Z,28.59
2023-05-05T10:35:39.832Z,28.82
2023-05-05T10:38:09.849Z,28.46
2023-05-05T10:40:36.859Z,28.49
2023-05-05T10:43:17.565Z,28.75
2023-05-05T10:46:11.517Z,29.04
2023-05-05T10:49:13.346Z,28.55
2023-05-05T10:52:24.457Z,29.09
2023-05-05T10:55:55.441Z,28.56
2023-05-05T10:58:47.048Z,28.81
2023-05-05T11:01:34.309Z,29.23
2023-05-05T11:04:22.221Z,28.81
2023-05-05T11:07:14.647Z,28.42
2023-05-05T11:10:04.323Z,28.85
2023-05-05T11:12:33.053Z,27.67
2023-05-05T11:15:28.213Z,28.16
2023-05-05T11:18:15.499Z,27.97
2023-05-05T11:21:23.562Z,28.32
2023-05-05T11:24:31.295Z,28.90
2023-05-05T11:26:58.137Z,27.40
2023-05-05T11:29:25.424Z,26.95
2023-05-05T11:32:12.546Z,28.02
2023-05-05T11:35:03.479Z,28.00
2023-05-05T11:37:43.985Z,27.41
2023-05-05T11:40:24.133Z,27.49
2023-05-05T11:43:20.549Z,28.44
2023-05-05T11:46:30.482Z,28.34
2023-05-05T11:48:57.407Z,27.69
2023-05-05T11:51:24.648Z,27.71
2023-05-05T11:54:11.483Z,28.20
2023-05-05T11:57:15.530Z,27.27
2023-05-05T11:59:58.430Z,25.92
2023-05-05T12:02:27.867Z,26.97
2023-05-05T12:04:56.352Z,26.86
2023-05-05T12:07:26.162Z,26.90
2023-05-05T12:09:53.623Z,26.01
2023-05-05T12:12:33.124Z,26.35
2023-05-05T12:15:00.518Z,25.61
2023-05-05T12:17:54.602Z,24.67
2023-05-05T12:20:55.703Z,25.12
2023-05-05T12:23:45.000Z,24.47
2023-05-05T12:26:29.556Z,24.61
2023-05-05T12:29:01.165Z,25.44
2023-05-05T12:31:39.378Z,25.53
2023-05-05T12:34:26.595Z,25.20
2023-05-05T12:37:28.554Z,24.91
2023-05-05T12:41:02.576Z,25.11
2023-05-05T12:43:43.214Z,24.77
2023-05-05T12:46:30.971Z,25.41
2023-05-05T12:49:31.557Z,26.03
2023-05-05T12:52:32.582Z,25.68
2023-05-05T12:55:33.611Z,25.71
2023-05-05T12:58:38.576Z,24.32
2023-05-05T13:01:20.046Z,25.58
2023-05-05T13:03:47.163Z,25.75
2023-05-05T13:06:21.806Z,26.02
2023-05-05T13:08:49.415Z,26.81
2023-05-05T13:11:16.710Z,27.25
2023-05-05T13:13:43.931Z,26.94
2023-05-05T13:16:11.046Z,26.71
2023-05-05T13:18:46.288Z,25.10
2023-05-05T13:21:35.873Z,25.38
2023-05-05T13:24:25.927Z,26.21
2023-05-05T13:26:58.970Z,25.59
2023-05-05T13:29:31.387Z,25.33
2023-05-05T13:31:58.833Z,25.86
2023-05-05T13:34:45.617Z,25.75
2023-05-05T13:37:39.553Z,26.06
2023-05-05T13:40:40.718Z,26.37
2023-05-05T13:43:41.574Z,26.36
2023-05-05T13:46:22.333Z,27.29
2023-05-05T13:49:09.592Z,27.04
2023-05-05T13:52:03.730Z,25.98
2023-05-05T13:54:57.585Z,26.04
2023-05-05T13:57:38.371Z,27.01
2023-05-05T14:00:25.633Z,26.25
2023-05-05T14:03:26.613Z,25.59
2023-05-05T14:06:09.193Z,26.16
2023-05-05T14:08:36.536Z,26.68
2023-05-05T14:11:03.812Z,26.43
2023-05-05T14:13:31.201Z,26.76
2023-05-05T14:15:58.531Z,26.64
2023-05-05T14:18:25.974Z,27.31
2023-05-05T14:21:12.622Z,26.97
2023-05-05T14:23:53.215Z,26.77
2023-05-05T14:26:20.113Z,26.52
2023-05-05T14:28:49.596Z,26.28
2023-05-05T14:31:17.818Z,26.24
2023-05-05T14:34:04.614Z,25.75
2023-05-05T14:36:45.330Z,25.53
2023-05-05T14:39:12.279Z,25.21
2023-05-05T14:41:39.215Z,25.67
2023-05-05T14:44:06.154Z,25.37
2023-05-05T14:46:53.712Z,25.85
2023-05-05T14:49:54.655Z,26.79
2023-05-05T14:52:42.059Z,26.36
2023-05-05T14:55:28.638Z,26.68
2023-05-05T14:58:30.657Z,26.70
2023-05-05T15:01:34.736Z,26.30
2023-05-05T15:04:35.646Z,26.05
2023-05-05T15:07:30.304Z,26.49
2023-05-05T15:10:18.681Z,27.01
2023-05-05T15:13:01.199Z,26.60
2023-05-05T15:15:28.233Z,26.81
2023-05-05T15:17:55.273Z,27.04
2023-05-05T15:20:42.654Z,26.99
2023-05-05T15:23:27.942Z,27.39
2023-05-05T15:25:54.889Z,27.22
2023-05-05T15:28:21.798Z,27.32
2023-05-05T15:30:48.721Z,26.76
2023-05-05T15:33:16.573Z,25.77
2023-05-05T15:35:43.650Z,25.74
2023-05-05T15:38:10.731Z,25.82
2023-05-05T15:40:37.628Z,25.74
2023-05-05T15:43:24.652Z,26.02
2023-05-05T15:46:05.230Z,26.20
2023-05-05T15:48:32.060Z,26.55
2023-05-05T15:50:59.083Z,26.56
2023-05-05T15:53:26.880Z,26.38
2023-05-05T15:56:13.714Z,26.36
2023-05-05T15:59:14.733Z,26.38
2023-05-05T16:02:15.748Z,26.33
2023-05-05T16:05:16.989Z,26.52
2023-05-05T16:08:10.989Z,26.19
2023-05-05T16:11:04.702Z,26.06
2023-05-05T16:13:45.678Z,26.04
2023-05-05T16:16:12.588Z,26.13
2023-05-05T16:18:59.691Z,25.91
2023-05-05T16:22:00.674Z,26.02
2023-05-05T16:24:43.660Z,26.11
2023-05-05T16:27:11.360Z,25.49
2023-05-05T16:29:38.605Z,25.70
2023-05-05T16:32:18.691Z,26.21
2023-05-05T16:34:59.272Z,25.80
2023-05-05T16:37:26.168Z,26.05
2023-05-05T16:39:53.025Z,25.96
2023-05-05T16:42:20.332Z,26.05
2023-05-05T16:44:47.228Z,25.16
2023-05-05T16:47:14.212Z,25.55
2023-05-05T16:49:41.198Z,25.32
2023-05-05T16:52:08.216Z,25.10
2023-05-05T16:54:35.073Z,25.66
2023-05-05T16:57:03.836Z,25.45
2023-05-05T16:59:50.714Z,25.36
2023-05-05T17:02:51.811Z,25.87
2023-05-05T17:05:52.811Z,25.81
2023-05-05T17:08:46.862Z,25.58
2023-05-05T17:11:27.329Z,25.57
2023-05-05T17:13:54.337Z,25.23
2023-05-05T17:16:21.318Z,25.30
2023-05-05T17:19:08.736Z,25.33
2023-05-05T17:22:09.781Z,25.52
2023-05-05T17:25:03.881Z,25.58
2023-05-05T17:27:50.792Z,24.89
2023-05-05T17:30:42.523Z,24.98
2023-05-05T17:33:09.574Z,24.82
2023-05-05T17:35:38.934Z,24.85
2023-05-05T17:38:06.051Z,24.88
2023-05-05T17:40:33.221Z,24.35
2023-05-05T17:43:00.384Z,24.32
2023-05-05T17:45:28.622Z,24.41
2023-05-05T17:47:55.982Z,24.35
2023-05-05T17:50:23.104Z,24.04
2023-05-05T17:52:50.049Z,24.16
2023-05-05T17:55:29.791Z,23.89
2023-05-05T17:58:25.367Z,24.05
2023-05-05T18:00:52.289Z,23.99
2023-05-05T18:03:19.616Z,23.48
2023-05-05T18:06:06.748Z,23.77
2023-05-05T18:09:09.170Z,23.66
2023-05-05T18:11:54.277Z,23.78
2023-05-05T18:14:22.681Z,23.57
2023-05-05T18:16:52.909Z,23.36
2023-05-05T18:19:39.862Z,23.31
2023-05-05T18:22:33.878Z,23.05
2023-05-05T18:25:14.505Z,22.85
2023-05-05T18:28:01.816Z,22.78
2023-05-05T18:30:43.278Z,22.67
2023-05-05T18:33:30.863Z,22.93
2023-05-05T18:36:11.435Z,22.82
2023-05-05T18:38:58.980Z,22.63
2023-05-05T18:41:39.817Z,22.35
2023-05-05T18:44:07.040Z,22.47
2023-05-05T18:46:34.091Z,21.94
2023-05-05T18:49:01.068Z,21.95
2023-05-05T18:51:28.800Z,22.10
2023-05-05T18:53:55.896Z,22.32
2023-05-05T18:56:42.805Z,22.07
2023-05-05T18:59:24.003Z,22.13
2023-05-05T19:01:51.448Z,22.13
2023-05-05T19:04:30.132Z,21.70
2023-05-05T19:07:31.382Z,21.89
2023-05-05T19:10:35.816Z,21.83
2023-05-05T19:16:17.807Z,21.66
2023-05-05T19:18:44.915Z,21.84
2023-05-05T19:21:31.855Z,21.65
2023-05-05T19:24:32.812Z,21.64
2023-05-05T19:27:33.830Z,21.67
2023-05-05T19:30:14.509Z,21.54
2023-05-05T19:33:01.836Z,21.59
2023-05-05T19:36:02.858Z,21.70
2023-05-05T19:38:44.587Z,21.28
2023-05-05T19:41:12.106Z,20.96
2023-05-05T19:43:59.802Z,21.41
2023-05-05T19:46:40.637Z,20.87
2023-05-05T19:49:07.825Z,21.33
2023-05-05T19:51:37.556Z,20.52
2023-05-05T19:54:05.019Z,20.67
2023-05-05T19:56:32.116Z,20.82
2023-05-05T19:59:18.896Z,20.43
2023-05-05T20:01:59.569Z,20.72
2023-05-05T20:04:26.621Z,20.48
2023-05-05T20:07:13.849Z,20.58
2023-05-05T20:10:14.871Z,20.43
2023-05-05T20:12:55.460Z,20.45
2023-05-05T20:15:22.654Z,20.40
2023-05-05T20:17:50.022Z,20.51
2023-05-05T20:20:36.920Z,20.58
2023-05-05T20:23:37.882Z,20.35
2023-05-05T20:26:18.615Z,20.18
2023-05-05T20:28:46.065Z,19.80
2023-05-05T20:31:32.918Z,19.81
2023-05-05T20:34:33.880Z,19.86
2023-05-05T20:37:35.067Z,19.84
2023-05-05T20:40:35.854Z,20.01
2023-05-05T20:43:24.654Z,19.71
2023-05-05T20:45:51.775Z,18.90
2023-05-05T20:48:18.973Z,19.85
2023-05-05T20:50:45.969Z,19.66
2023-05-05T20:53:15.771Z,19.72
2023-05-05T20:56:02.909Z,19.73
2023-05-05T20:58:43.599Z,19.43
2023-05-05T21:01:11.452Z,19.51
2023-05-05T21:03:38.472Z,19.32
2023-05-05T21:06:25.965Z,19.42
2023-05-05T21:09:27.894Z,19.17
2023-05-05T21:12:08.471Z,19.45
2023-05-05T21:14:35.953Z,19.60
2023-05-05T21:17:02.945Z,19.38
2023-05-05T21:19:49.881Z,19.09
2023-05-05T21:22:50.900Z,19.32
2023-05-05T21:25:31.456Z,19.08
2023-05-05T21:28:18.889Z,18.95
2023-05-05T21:31:19.609Z,18.97
2023-05-05T21:34:06.894Z,18.65
2023-05-05T21:37:07.908Z,18.95
2023-05-05T21:40:09.152Z,18.61
2023-05-05T21:43:09.954Z,18.26
2023-05-05T21:45:41.051Z,18.81
2023-05-05T21:48:08.024Z,18.51
2023-05-05T21:50:36.654Z,19.05
2023-05-05T21:53:03.556Z,18.73
2023-05-05T21:55:30.625Z,18.41
2023-05-05T21:57:57.534Z,19.21
2023-05-05T22:00:24.798Z,18.87
2023-05-05T22:02:51.868Z,18.86
2023-05-05T22:05:38.948Z,19.03
2023-05-05T22:08:19.814Z,18.82
2023-05-05T22:10:47.662Z,18.74
2023-05-05T22:13:14.755Z,18.84
2023-05-05T22:15:46.673Z,18.99
2023-05-05T22:18:15.438Z,19.01
2023-05-05T22:21:02.972Z,18.64
2023-05-05T22:23:43.573Z,18.97
2023-05-05T22:26:10.692Z,18.76
2023-05-05T22:28:38.617Z,18.54
2023-05-05T22:31:25.963Z,18.55
2023-05-05T22:34:27.940Z,18.64
2023-05-05T22:37:09.792Z,18.70
2023-05-05T22:39:49.937Z,18.68
2023-05-05T22:42:51.008Z,18.51
2023-05-05T22:45:31.495Z,18.82
2023-05-05T22:47:58.519Z,18.68
2023-05-05T22:50:25.790Z,18.19
2023-05-05T22:52:52.696Z,18.84
2023-05-05T22:55:39.967Z,18.54
2023-05-05T22:58:21.147Z,18.57
2023-05-05T23:00:48.104Z,18.46
2023-05-05T23:03:15.526Z,18.07
2023-05-05T23:06:03.006Z,18.26
2023-05-05T23:09:03.977Z,18.01
2023-05-05T23:12:04.991Z,18.27
2023-05-05T23:14:45.828Z,18.12
2023-05-05T23:17:32.980Z,18.08
2023-05-05T23:20:33.965Z,18.14
2023-05-05T23:23:26.684Z,17.80
2023-05-05T23:25:53.577Z,17.56
2023-05-05T23:28:20.574Z,17.56
2023-05-05T23:30:47.705Z,17.46
2023-05-05T23:33:14.807Z,17.51
2023-05-05T23:35:43.526Z,17.17
2023-05-05T23:38:10.602Z,17.10
2023-05-05T23:40:37.605Z,17.41
2023-05-05T23:43:04.553Z,17.31
2023-05-05T23:45:31.537Z,17.72
2023-05-05T23:47:58.515Z,17.70
2023-05-05T23:50:26.025Z,17.59
2023-05-05T23:52:52.928Z,17.29
2023-05-05T23:55:20.290Z,16.89
2023-05-05T23:57:47.298Z,17.36
